CST,Max TemperatureF,Mean TemperatureF,Min TemperatureF,Max Dew PointF,MeanDew PointF,Min DewpointF,Max Humidity, Mean Humidity, Min Humidity, Max Sea Level PressureIn, Mean Sea Level PressureIn, Min Sea Level PressureIn, Max VisibilityMiles, Mean VisibilityMiles, Min VisibilityMiles, Max Wind SpeedMPH, Mean Wind SpeedMPH, Max Gust SpeedMPH,PrecipitationIn, CloudCover, Events, WindDirDegrees
2013-1-1,30,22,12,28,18,9,93,78,63,30.31,30.22,30.12,10,8,2,10,7,,0.00,6,Snow,347
2013-1-2,33,22,10,15,11,6,88,73,43,30.32,30.27,30.22,10,9,6,6,1,,0.00,1,,226
2013-1-3,39,26,14,26,20,10,88,75,55,30.43,30.36,30.25,10,10,6,9,4,,0.00,3,,259
2013-1-4,41,30,19,23,20,16,89,71,43,30.46,30.40,30.34,10,10,10,15,3,21,0.00,1,,241
2013-1-5,45,33,21,30,24,16,88,65,46,30.34,30.24,30.12,10,10,10,13,3,20,0.00,5,,217
2013-1-6,41,31,21,31,22,17,86,68,46,30.42,30.27,30.10,10,10,10,20,10,26,0.00,3,,287
2013-1-7,48,32,17,25,20,13,85,62,37,30.43,30.31,30.17,10,10,9,10,2,,0.00,1,,169
2013-1-8,57,41,25,34,23,18,85,52,23,30.23,30.16,30.09,10,10,10,12,2,,0.00,3,,192
2013-1-9,57,46,34,42,34,28,96,66,37,30.48,30.38,30.20,10,10,10,8,4,,0.00,4,,321
2013-1-10,53,45,39,52,43,29,100,87,53,30.44,30.03,29.78,10,5,0,13,7,20,0.27,7,Fog-Rain,85
2013-1-11,64,57,50,50,46,45,89,72,52,29.87,29.81,29.76,10,10,10,15,9,23,0.00,3,,204
2013-1-12,57,44,32,47,36,28,93,76,50,29.97,29.91,29.81,10,9,4,16,6,22,0.42,5,Rain,340
2013-1-13,32,25,18,29,19,12,89,77,69,30.41,30.15,29.94,10,10,9,16,9,20,0.00,6,,309
2013-1-14,28,22,16,14,11,8,84,70,51,30.53,30.48,30.42,10,10,10,7,2,,0.00,1,,338
2013-1-15,30,21,12,19,15,8,85,72,56,30.46,30.34,30.20,10,10,10,9,2,,0.00,5,,20
2013-1-16,42,28,14,24,18,10,88,68,40,30.20,30.14,30.04,10,10,9,15,4,18,0.00,1,,249
2013-1-17,42,32,21,29,22,16,85,68,35,30.52,30.37,30.16,10,10,10,14,4,,0.00,2,,337
2013-1-18,55,37,19,26,20,15,88,53,25,30.53,30.34,30.14,10,10,10,14,5,23,0.00,0,,209
2013-1-19,64,54,43,33,29,25,56,44,29,30.14,30.04,29.92,10,10,10,20,12,30,0.00,0,,243
2013-1-20,44,35,24,28,13,8,69,47,33,30.37,30.31,30.17,10,10,10,15,9,20,0.00,3,,345
2013-1-21,27,22,16,11,3,-5,68,48,28,30.44,30.38,30.34,10,10,10,23,12,32,0.00,5,,310
2013-1-22,18,15,12,10,4,-3,84,62,45,30.53,30.45,30.41,10,9,2,6,3,,0.00,6,Snow,357
2013-1-23,43,26,10,20,14,6,84,64,38,30.40,30.29,30.14,10,10,9,13,2,17,0.00,0,,292
2013-1-24,27,20,15,12,6,0,65,49,38,30.63,30.48,30.27,10,10,10,15,11,20,0.00,5,,76
2013-1-25,44,35,26,19,15,9,61,49,37,30.28,30.19,30.14,10,10,10,12,5,,0.00,5,,241
2013-1-26,41,33,25,21,14,9,78,51,32,30.43,30.34,30.27,10,10,10,7,3,,0.00,1,,60
2013-1-27,55,42,30,51,34,16,93,82,56,30.31,30.11,29.94,10,7,1,12,6,21,0.23,7,Rain,141
2013-1-28,73,64,55,59,56,52,88,77,59,29.96,29.91,29.83,10,10,10,13,8,22,0.00,6,,185
2013-1-29,68,60,53,60,55,52,100,86,70,29.80,29.58,29.43,10,6,1,28,9,37,1.29,7,Rain-Thunderstorm,225
2013-1-30,53,40,28,52,34,15,94,78,58,29.96,29.59,29.37,10,9,3,28,12,40,0.12,7,Rain-Snow,261
2013-1-31,33,22,10,25,13,-3,86,61,51,30.44,30.11,29.95,10,9,1,25,15,31,0.00,6,Snow,277